Monday, January 26, 2015
06:24 UTC
  |  Log In   |  Register Free
Airport Search:

Akron-Canton Regional Airport
(KCAK)

FAA data valid effective January 08, 2015 - March 05, 2015 (unless otherwise noted).

 
 
 
 
 
 
 
 
 
 
 
 
 
 

Current Aviation Weather for Akron-Canton Regional Airport (KCAK)

The most recent METAR observation for KCAK was updated at: 0608
METAR Summary (Translated METAR)
KCAK
260551Z 03012KT 1SM R23/P6000FT -SN VV018 M07/M09 A2978 RMK AO2 SLP100 P0002 60012 4/004 T10671094 11039 21067 58011 $
KAKR
260554Z AUTO 03008KT 1 1/2SM -SN BR OVC020 M07/M09 A2980 RMK AO2 SLP103 P0000 60000 T10671089 11039 21067 58010 $
(7.4 nm NW from KCAK)
KPOV
260556Z AUTO 05008KT 2 1/2SM -SN OVC021 M08/M10 A2981 RMK AO2 T10761100
(19.7 nm NE from KCAK)
TAF Summary (Translated TAF)
KCAK
260527Z 2606/2706 04012KT 1SM -SN BR SCT012 OVC020 TEMPO 2606/2610 1/2SM SN OVC012 FM261000 04012KT 1 1/2SM -SN BR OVC012 TEMPO 2610/2614 3/4SM -SN BR OVC006 FM261400 04012KT 3SM -SN BR OVC015 FM262000 01010KT 5SM -SN OVC015 FM262200 36010KT 6SM -SN OVC025 FM270200 36006KT 5SM -SN BR OVC012
  Airport Weather Conditions for KCAK

 Current Weather at CAK
20° F
Light Snow
Northeast winds at 13.8 mph
CAK NOAA Radar

Pressure: 29.78 in
Humidity: 81%
Wind: Northeast at 13.8 MPH (12 KT)
Dew Point: 15.1°F
Visibility: 1.00 mi


Airport Weather Forecast for KCAK

Translated METAR and TAF for KCAK
Translated METAR for KCAK (0624 UTC 26 January 2015)
found at http://aviationweather.gov/adds/metars/
 
METAR text: KCAK 260551Z 03012KT 1SM R23/P6000FT -SN VV018 M07/M09 A2978 RMK AO2 SLP100 P0002 60012 4/004 T10671094 11039 21067 58011 $
Conditions at: KCAK (AKRON , OH, US) observed 0551 UTC 26 January 2015
Temperature: -6.7°C (20°F)
Dewpoint: -9.4°C (15°F) [RH = 81%]
Pressure (altimeter): 29.78 inches Hg (1008.5 mb)
[Sea-level pressure: 1010.0 mb]
Winds: from the NNE (30 degrees) at 14 MPH (12 knots; 6.2 m/s)
Visibility: 1.00 miles (1.61 km)
Ceiling: indefinite ceiling with vertical visibility of 1800 feet AGL
Clouds: obscured sky
Weather: -SN  (light snow)
SOME DATA ABOVE MAY BE INACCURATE!!!
"$" is an indication the sensor requires maintenance
Translated TAF for KCAK
Forecast for: KCAK (AKRON , OH, US)
TAF Text: KCAK 260527Z 2606/2706 04012KT 1SM -SN BR SCT012 OVC020
Forecast period: 0600 to 1000 UTC 26 January 2015
Forecast type: FROM: standard forecast or significant change
Winds: from the NE (40 degrees) at 14 MPH (12 knots; 6.2 m/s)
Visibility: 1.00 miles (1.61 km)
Ceiling: 2000 feet AGL
Clouds: scattered clouds at 1200 feet AGL
overcast cloud deck at 2000 feet AGL
Weather: -SN BR  (light snow, mist)
TAF Text: TEMPO 2606/2610 1/2SM SN OVC012
Forecast period: 0600 to 1000 UTC 26 January 2015
Forecast type: TEMPORARY: The following changes expected for less than half the time period
Visibility: 0.50 miles (0.80 km)
Ceiling: 1200 feet AGL
Clouds: overcast cloud deck at 1200 feet AGL
Weather: SN  (snow)
TAF Text: FM261000 04012KT 1 1/2SM -SN BR OVC012
Forecast period: 1000 to 1400 UTC 26 January 2015
Forecast type: FROM: standard forecast or significant change
Winds: from the NE (40 degrees) at 14 MPH (12 knots; 6.2 m/s)
Visibility: 1.50 miles (2.41 km)
Ceiling: 1200 feet AGL
Clouds: overcast cloud deck at 1200 feet AGL
Weather: -SN BR  (light snow, mist)
TAF Text: TEMPO 2610/2614 3/4SM -SN BR OVC006
Forecast period: 1000 to 1400 UTC 26 January 2015
Forecast type: TEMPORARY: The following changes expected for less than half the time period
Visibility: 0.75 miles (1.21 km)
Ceiling: 600 feet AGL
Clouds: overcast cloud deck at 600 feet AGL
Weather: -SN BR  (light snow, mist)
TAF Text: FM261400 04012KT 3SM -SN BR OVC015
Forecast period: 1400 to 2000 UTC 26 January 2015
Forecast type: FROM: standard forecast or significant change
Winds: from the NE (40 degrees) at 14 MPH (12 knots; 6.2 m/s)
Visibility: 3 miles (5 km)
Ceiling: 1500 feet AGL
Clouds: overcast cloud deck at 1500 feet AGL
Weather: -SN BR  (light snow, mist)
TAF Text: FM262000 01010KT 5SM -SN OVC015
Forecast period: 2000 to 2200 UTC 26 January 2015
Forecast type: FROM: standard forecast or significant change
Winds: from the N (10 degrees) at 12 MPH (10 knots; 5.2 m/s)
Visibility: 5 miles (8 km)
Ceiling: 1500 feet AGL
Clouds: overcast cloud deck at 1500 feet AGL
Weather: -SN  (light snow)
TAF Text: FM262200 36010KT 6SM -SN OVC025
Forecast period: 2200 UTC 26 January 2015 to 0200 UTC 27 January 2015
Forecast type: FROM: standard forecast or significant change
Winds: from the N (360 degrees) at 12 MPH (10 knots; 5.2 m/s)
Visibility: 6 miles (10 km)
Ceiling: 2500 feet AGL
Clouds: overcast cloud deck at 2500 feet AGL
Weather: -SN  (light snow)
TAF Text: FM270200 36006KT 5SM -SN BR OVC012
Forecast period: 0200 to 0600 UTC 27 January 2015
Forecast type: FROM: standard forecast or significant change
Winds: from the N (360 degrees) at 7 MPH (6 knots; 3.1 m/s)
Visibility: 5 miles (8 km)
Ceiling: 1200 feet AGL
Clouds: overcast cloud deck at 1200 feet AGL
Weather: -SN BR  (light snow, mist)

Find All Airport Services Find A Hotel Find A Rental Car Find A Golf Course Find A Restaurant $100 Hamburger



FBO's on the Field
FBO Company Facility Photos Services Transportation Aviation Fuel Prices: Prices include tax
Catering Weather Repair Courtesy Rental Type 100LL JetA JetA+ MOGAS 8087
 
Avflight Akron-Canton

This FBO has not yet been rated
FS:
Last Updated: Jan-22
Login to update fuel prices
SS:
Contact Avflight Akron-CantonMore FBO Information
 
McKinley Air, Inc.

Currently rated 4.4 by 4 people
FS:Phillips 66
Last Updated: Jan-02
Login to update fuel prices
SS:
Contact McKinley Air, Inc.More FBO Information
 
Add another FBO Facility Photos Catering Weather Repair Courtesy Rental Type 100LL JetA JetA+ MOGAS 8087
Services Transportation Aviation Fuel Prices: Prices include tax


model-print
model-print
model-print
model-print